createdAt,value
2023-04-11T00:00:27.146Z,8.65
2023-04-11T00:02:59.468Z,9.40
2023-04-11T00:05:31.777Z,8.93
2023-04-11T00:08:03.910Z,10.60
2023-04-11T00:10:34.604Z,8.63
2023-04-11T00:13:07.210Z,8.85
2023-04-11T00:15:39.491Z,10.68
2023-04-11T00:18:11.730Z,10.88
2023-04-11T00:20:42.368Z,8.95
2023-04-11T00:23:14.697Z,9.65
2023-04-11T00:25:46.654Z,10.55
2023-04-11T00:28:17.288Z,9.88
2023-04-11T00:30:47.733Z,9.73
2023-04-11T00:33:19.359Z,8.00
2023-04-11T00:35:53.585Z,9.35
2023-04-11T00:38:25.452Z,9.95
2023-04-11T00:40:55.913Z,9.35
2023-04-11T00:43:26.434Z,8.98
2023-04-11T00:45:57.245Z,9.03
2023-04-11T00:48:28.694Z,10.55
2023-04-11T00:50:59.840Z,9.00
2023-04-11T00:53:33.005Z,8.93
2023-04-11T00:56:04.262Z,10.55
2023-04-11T00:58:36.576Z,8.55
2023-04-11T01:01:11.827Z,8.78
2023-04-11T01:03:45.776Z,9.30
2023-04-11T01:06:21.307Z,9.30
2023-04-11T01:08:52.880Z,8.50
2023-04-11T01:11:25.188Z,9.85
2023-04-11T01:13:56.723Z,9.00
2023-04-11T01:16:28.640Z,10.25
2023-04-11T01:18:59.475Z,8.45
2023-04-11T01:21:31.592Z,8.60
2023-04-11T01:24:03.812Z,9.28
2023-04-11T01:26:35.337Z,8.60
2023-04-11T01:29:05.904Z,9.25
2023-04-11T01:31:37.965Z,9.87
2023-04-11T01:34:10.578Z,8.75
2023-04-11T01:36:42.774Z,8.70
2023-04-11T01:39:15.362Z,9.03
2023-04-11T01:41:47.534Z,8.98
2023-04-11T01:44:20.944Z,9.15
2023-04-11T01:46:52.771Z,8.03
2023-04-11T01:49:31.125Z,8.50
2023-04-11T01:52:03.116Z,8.70
2023-04-11T01:54:34.305Z,9.55
2023-04-11T01:57:07.465Z,8.58
2023-04-11T01:59:39.673Z,9.75
2023-04-11T02:02:10.876Z,10.80
2023-04-11T02:04:42.016Z,8.63
2023-04-11T02:07:14.950Z,9.28
2023-04-11T02:09:45.890Z,9.65
2023-04-11T02:12:19.840Z,9.30
2023-04-11T02:14:52.020Z,8.95
2023-04-11T02:17:24.247Z,8.40
2023-04-11T02:19:57.431Z,8.73
2023-04-11T02:22:28.356Z,9.38
2023-04-11T02:25:00.624Z,9.33
2023-04-11T02:27:32.410Z,8.23
2023-04-11T02:30:05.901Z,8.35
2023-04-11T02:35:36.411Z,8.30
2023-04-11T02:38:08.604Z,10.13
2023-04-11T02:40:39.267Z,9.13
2023-04-11T02:43:16.578Z,12.18
2023-04-11T02:45:52.457Z,10.18
2023-04-11T02:48:24.189Z,8.30
2023-04-11T02:50:55.186Z,8.88
2023-04-11T02:53:26.274Z,8.98
2023-04-11T02:55:57.828Z,8.55
2023-04-11T02:58:29.058Z,9.53
2023-04-11T03:01:00.814Z,8.58
2023-04-11T03:03:31.816Z,8.70
2023-04-11T03:06:02.349Z,9.85
2023-04-11T03:08:32.806Z,9.98
2023-04-11T03:11:05.402Z,8.93
2023-04-11T03:13:38.409Z,8.68
2023-04-11T03:16:09.845Z,8.43
2023-04-11T03:18:41.255Z,8.03
2023-04-11T03:21:12.964Z,10.30
2023-04-11T03:23:44.275Z,8.45
2023-04-11T03:26:14.814Z,9.78
2023-04-11T03:28:46.145Z,9.35
2023-04-11T03:31:17.682Z,10.20
2023-04-11T03:33:49.896Z,9.45
2023-04-11T03:36:22.086Z,9.00
2023-04-11T03:38:54.409Z,8.13
2023-04-11T03:41:26.326Z,9.03
2023-04-11T03:43:56.800Z,8.50
2023-04-11T03:46:28.980Z,11.50
2023-04-11T03:48:59.910Z,9.10
2023-04-11T03:51:31.521Z,9.55
2023-04-11T03:54:02.608Z,9.25
2023-04-11T03:56:33.116Z,8.68
2023-04-11T03:59:03.765Z,9.83
2023-04-11T04:01:36.069Z,8.68
2023-04-11T04:04:07.722Z,8.88
2023-04-11T04:06:38.558Z,9.07
2023-04-11T04:09:09.230Z,9.73
2023-04-11T04:11:40.167Z,9.00
2023-04-11T04:14:10.767Z,8.93
2023-04-11T04:16:41.626Z,8.68
2023-04-11T04:19:15.255Z,8.88
2023-04-11T04:21:46.766Z,9.33
2023-04-11T04:24:17.569Z,8.93
2023-04-11T04:26:49.954Z,9.05
2023-04-11T04:29:21.625Z,8.75
2023-04-11T04:31:53.162Z,7.08
2023-04-11T04:34:24.581Z,9.20
2023-04-11T04:36:57.066Z,7.87
2023-04-11T04:39:29.167Z,7.97
2023-04-11T04:41:59.851Z,9.47
2023-04-11T04:44:30.632Z,11.00
2023-04-11T04:47:01.394Z,9.83
2023-04-11T04:49:33.764Z,9.10
2023-04-11T04:52:05.192Z,10.23
2023-04-11T04:54:35.964Z,9.20
2023-04-11T04:57:07.037Z,11.22
2023-04-11T04:59:39.428Z,9.60
2023-04-11T05:02:10.144Z,10.00
2023-04-11T05:04:42.192Z,11.50
2023-04-11T05:07:16.423Z,9.40
2023-04-11T05:09:51.277Z,11.50
2023-04-11T05:12:22.842Z,12.43
2023-04-11T05:14:55.343Z,10.72
2023-04-11T05:17:27.934Z,11.35
2023-04-11T05:19:59.942Z,10.70
2023-04-11T05:22:30.997Z,11.23
2023-04-11T05:25:02.561Z,11.50
2023-04-11T05:27:33.041Z,11.85
2023-04-11T05:30:03.720Z,12.05
2023-04-11T05:32:34.391Z,11.80
2023-04-11T05:35:06.676Z,11.25
2023-04-11T05:37:37.351Z,13.97
2023-04-11T05:40:09.887Z,11.33
2023-04-11T05:42:42.071Z,11.25
2023-04-11T05:45:16.138Z,13.88
2023-04-11T05:47:49.382Z,10.70
2023-04-11T05:50:20.165Z,12.55
2023-04-11T05:52:51.747Z,12.47
2023-04-11T05:55:22.256Z,11.57
2023-04-11T05:57:52.964Z,14.45
2023-04-11T06:00:24.680Z,11.15
2023-04-11T06:02:55.514Z,12.00
2023-04-11T06:05:29.588Z,12.75
2023-04-11T06:08:00.724Z,11.88
2023-04-11T06:10:32.893Z,12.25
2023-04-11T06:13:03.521Z,11.60
2023-04-11T06:15:34.260Z,10.78
2023-04-11T06:18:06.860Z,12.47
2023-04-11T06:20:37.417Z,10.93
2023-04-11T06:23:09.618Z,12.58
2023-04-11T06:25:41.991Z,12.78
2023-04-11T06:28:12.670Z,13.95
2023-04-11T06:30:43.348Z,11.05
2023-04-11T06:33:15.366Z,10.80
2023-04-11T06:35:46.287Z,12.03
2023-04-11T06:38:17.414Z,13.03
2023-04-11T06:40:51.200Z,13.65
2023-04-11T06:43:21.029Z,13.05
2023-04-11T06:45:52.305Z,12.63
2023-04-11T06:48:24.343Z,13.58
2023-04-11T06:50:55.095Z,13.05
2023-04-11T06:53:26.125Z,10.75
2023-04-11T06:55:58.317Z,11.53
2023-04-11T06:58:29.649Z,12.25
2023-04-11T07:01:03.718Z,11.08
2023-04-11T07:03:37.357Z,13.20
2023-04-11T07:06:12.034Z,13.55
2023-04-11T07:08:43.636Z,11.73
2023-04-11T07:11:15.161Z,13.15
2023-04-11T07:13:48.170Z,12.57
2023-04-11T07:16:18.715Z,11.83
2023-04-11T07:18:51.576Z,12.85
2023-04-11T07:21:22.545Z,10.93
2023-04-11T07:23:55.440Z,10.95
2023-04-11T07:26:27.344Z,11.35
2023-04-11T07:28:59.485Z,11.77
2023-04-11T07:31:32.553Z,11.12
2023-04-11T07:34:04.890Z,12.82
2023-04-11T07:36:37.727Z,10.95
2023-04-11T07:39:12.690Z,10.70
2023-04-11T07:44:35.489Z,8.93
2023-04-11T07:47:09.283Z,11.10
2023-04-11T07:49:39.858Z,11.63
2023-04-11T07:52:14.039Z,10.85
2023-04-11T07:54:46.851Z,10.25
2023-04-11T07:57:17.380Z,11.60
2023-04-11T07:59:48.231Z,9.35
2023-04-11T08:02:19.072Z,9.65
2023-04-11T08:04:50.855Z,12.05
2023-04-11T08:07:21.556Z,8.63
2023-04-11T08:09:52.086Z,9.23
2023-04-11T08:12:23.684Z,10.65
2023-04-11T08:14:55.894Z,9.48
2023-04-11T08:17:29.008Z,9.90
2023-04-11T08:20:02.309Z,7.40
2023-04-11T08:22:35.356Z,5.72
2023-04-11T08:25:07.787Z,6.33
2023-04-11T08:27:39.856Z,5.75
2023-04-11T08:30:11.591Z,4.60
2023-04-11T08:32:42.934Z,5.27
2023-04-11T08:35:15.004Z,6.07
2023-04-11T08:37:48.744Z,9.10
2023-04-11T08:40:20.748Z,6.35
2023-04-11T08:42:51.944Z,7.40
2023-04-11T08:45:22.554Z,6.12
2023-04-11T08:47:53.155Z,6.90
2023-04-11T08:50:24.095Z,5.77
2023-04-11T08:52:55.596Z,5.33
2023-04-11T08:55:26.310Z,9.95
2023-04-11T08:57:58.608Z,4.60
2023-04-11T09:00:29.741Z,6.25
2023-04-11T09:03:05.664Z,4.75
2023-04-11T09:05:39.743Z,5.67
2023-04-11T09:08:15.498Z,6.03
2023-04-11T09:10:48.788Z,5.05
2023-04-11T09:13:25.218Z,5.75
2023-04-11T09:16:12.828Z,6.15
2023-04-11T09:18:46.471Z,5.53
2023-04-11T09:21:21.449Z,4.83
2023-04-11T09:23:53.157Z,5.35
2023-04-11T09:26:30.580Z,5.50
2023-04-11T09:29:03.076Z,4.47
2023-04-11T09:31:47.114Z,5.35
2023-04-11T09:34:20.805Z,6.85
2023-04-11T09:36:56.587Z,5.72
2023-04-11T09:39:28.899Z,7.55
2023-04-11T09:42:03.668Z,5.25
2023-04-11T09:44:39.627Z,6.72
2023-04-11T09:47:13.154Z,6.87
2023-04-11T09:49:44.201Z,6.33
2023-04-11T09:52:15.373Z,6.15
2023-04-11T09:54:48.635Z,5.28
2023-04-11T09:57:22.802Z,3.70
2023-04-11T09:59:54.888Z,6.20
2023-04-11T10:02:25.530Z,5.08
2023-04-11T10:04:59.849Z,3.80
2023-04-11T10:07:30.965Z,5.45
2023-04-11T10:10:01.715Z,6.87
2023-04-11T10:12:33.354Z,5.40
2023-04-11T10:15:10.745Z,7.55
2023-04-11T10:17:43.017Z,6.17
2023-04-11T10:20:38.104Z,5.40
2023-04-11T10:23:10.482Z,4.60
2023-04-11T10:25:53.048Z,5.55
2023-04-11T10:28:37.888Z,4.28
2023-04-11T10:31:16.851Z,4.80
2023-04-11T10:34:15.284Z,4.00
2023-04-11T10:37:08.051Z,5.58
2023-04-11T10:39:59.753Z,3.87
2023-04-11T10:42:36.068Z,3.83
2023-04-11T10:45:24.676Z,3.37
2023-04-11T10:48:08.023Z,5.05
2023-04-11T10:50:42.427Z,3.20
2023-04-11T10:53:34.021Z,3.90
2023-04-11T10:56:07.081Z,2.95
2023-04-11T10:58:39.817Z,5.62
2023-04-11T11:01:25.966Z,2.30
2023-04-11T11:03:56.926Z,2.58
2023-04-11T11:06:29.283Z,4.95
2023-04-11T11:09:03.202Z,4.25
2023-04-11T11:11:35.495Z,4.40
2023-04-11T11:14:06.131Z,4.12
2023-04-11T11:16:37.228Z,3.05
2023-04-11T11:19:10.669Z,4.90
2023-04-11T11:21:42.386Z,2.60
2023-04-11T11:24:13.098Z,4.05
2023-04-11T11:26:46.842Z,1.92
2023-04-11T11:29:17.818Z,3.08
2023-04-11T11:31:49.904Z,2.90
2023-04-11T11:34:30.055Z,2.62
2023-04-11T11:37:04.838Z,2.72
2023-04-11T11:39:36.386Z,4.20
2023-04-11T11:42:08.617Z,4.08
2023-04-11T11:44:39.528Z,2.12
2023-04-11T11:47:18.276Z,2.40
2023-04-11T11:49:54.976Z,2.62
2023-04-11T11:52:37.587Z,2.65
2023-04-11T11:55:20.231Z,4.78
2023-04-11T11:57:52.603Z,3.77
2023-04-11T12:00:29.654Z,4.05
2023-04-11T12:03:02.173Z,2.83
2023-04-11T12:05:34.992Z,2.60
2023-04-11T12:08:07.897Z,1.75
2023-04-11T12:10:41.321Z,2.08
2023-04-11T12:13:14.301Z,2.65
2023-04-11T12:15:48.260Z,2.27
2023-04-11T12:18:28.608Z,3.45
2023-04-11T12:21:00.156Z,3.20
2023-04-11T12:23:30.991Z,1.77
2023-04-11T12:26:02.206Z,3.85
2023-04-11T12:28:34.820Z,2.98
2023-04-11T12:31:07.604Z,2.62
2023-04-11T12:33:38.186Z,2.00
2023-04-11T12:36:09.609Z,2.05
2023-04-11T12:38:41.102Z,3.15
2023-04-11T12:41:30.851Z,3.20
2023-04-11T12:43:44.216Z,4.58
2023-04-11T12:46:15.040Z,3.08
2023-04-11T12:48:45.769Z,2.70
2023-04-11T12:51:16.587Z,2.42
2023-04-11T12:53:47.244Z,3.72
2023-04-11T12:56:17.905Z,4.25
2023-04-11T12:58:48.689Z,5.60
2023-04-11T13:01:21.130Z,2.90
2023-04-11T13:03:53.518Z,5.12
2023-04-11T13:06:25.789Z,3.33
2023-04-11T13:08:58.413Z,2.37
2023-04-11T13:11:29.759Z,4.37
2023-04-11T13:14:00.399Z,3.72
2023-04-11T13:16:32.236Z,5.12
2023-04-11T13:19:03.671Z,2.80
2023-04-11T13:21:34.414Z,1.90
2023-04-11T13:24:05.264Z,3.15
2023-04-11T13:26:38.237Z,1.77
2023-04-11T13:29:12.568Z,1.90
2023-04-11T13:31:43.281Z,1.57
2023-04-11T13:34:14.111Z,1.22
2023-04-11T13:36:46.021Z,1.20
2023-04-11T13:39:16.630Z,2.50
2023-04-11T13:41:47.153Z,1.67
2023-04-11T13:44:17.862Z,1.80
2023-04-11T13:46:51.578Z,4.50
2023-04-11T13:49:22.425Z,3.02
2023-04-11T13:51:52.878Z,1.62
2023-04-11T13:54:24.894Z,1.60
2023-04-11T13:56:56.564Z,1.70
2023-04-11T13:59:28.732Z,1.73
2023-04-11T14:01:59.284Z,1.80
2023-04-11T14:04:34.490Z,4.08
2023-04-11T14:07:05.121Z,3.27
2023-04-11T14:09:36.686Z,2.67
2023-04-11T14:12:08.495Z,1.63
2023-04-11T14:14:39.372Z,1.50
2023-04-11T14:17:10.281Z,1.53
2023-04-11T14:19:42.443Z,2.57
2023-04-11T14:22:14.527Z,1.50
2023-04-11T14:24:47.087Z,2.17
2023-04-11T14:27:17.980Z,3.53
2023-04-11T14:29:51.093Z,4.30
2023-04-11T14:32:21.787Z,1.72
2023-04-11T14:34:54.939Z,2.90
2023-04-11T14:37:25.635Z,4.17
2023-04-11T14:39:56.313Z,3.07
2023-04-11T14:42:26.885Z,5.05
2023-04-11T14:44:58.754Z,4.10
2023-04-11T14:47:30.515Z,2.43
2023-04-11T14:50:02.236Z,3.47
2023-04-11T14:52:33.722Z,3.20
2023-04-11T14:55:05.867Z,2.67
2023-04-11T14:57:55.531Z,2.70
2023-04-11T15:00:27.406Z,3.37
2023-04-11T15:02:58.064Z,4.77
2023-04-11T15:05:28.951Z,3.40
2023-04-11T15:08:01.088Z,3.00
2023-04-11T15:10:34.334Z,3.55
2023-04-11T15:13:05.876Z,3.15
2023-04-11T15:15:36.673Z,4.60
2023-04-11T15:18:29.528Z,3.07
2023-04-11T15:21:03.443Z,2.92
2023-04-11T15:23:34.143Z,1.90
2023-04-11T15:26:05.666Z,3.40
2023-04-11T15:28:37.937Z,2.17
2023-04-11T15:31:12.199Z,3.37
2023-04-11T15:33:44.923Z,5.42
2023-04-11T15:36:18.055Z,2.57
2023-04-11T15:38:49.522Z,2.33
2023-04-11T15:41:20.117Z,5.12
2023-04-11T15:43:51.974Z,1.83
2023-04-11T15:46:22.661Z,2.55
2023-04-11T15:48:54.554Z,2.95
2023-04-11T15:51:25.113Z,2.35
2023-04-11T15:53:56.318Z,3.75
2023-04-11T15:56:31.025Z,2.85
2023-04-11T15:59:01.792Z,5.00
2023-04-11T16:01:33.866Z,3.95
2023-04-11T16:04:04.575Z,3.50
2023-04-11T16:06:35.418Z,2.85
2023-04-11T16:09:06.140Z,2.75
2023-04-11T16:11:38.923Z,1.90
2023-04-11T16:14:10.042Z,3.13
2023-04-11T16:16:40.973Z,3.90
2023-04-11T16:19:12.180Z,4.37
2023-04-11T16:21:43.229Z,2.87
2023-04-11T16:24:13.976Z,4.60
2023-04-11T16:26:45.192Z,4.00
2023-04-11T16:29:16.725Z,3.25
2023-04-11T16:31:52.070Z,2.08
2023-04-11T16:34:23.872Z,3.25
2023-04-11T16:36:55.638Z,2.00
2023-04-11T16:39:29.331Z,1.77
2023-04-11T16:42:01.671Z,3.33
2023-04-11T16:44:33.990Z,2.93
2023-04-11T16:47:09.254Z,3.13
2023-04-11T16:49:39.985Z,3.05
2023-04-11T16:52:10.856Z,4.93
2023-04-11T16:54:41.825Z,5.35
2023-04-11T16:57:13.156Z,2.87
2023-04-11T16:59:43.903Z,2.87
2023-04-11T17:02:16.919Z,4.37
2023-04-11T17:04:48.784Z,2.45
2023-04-11T17:07:19.358Z,2.57
2023-04-11T17:09:51.273Z,4.13
2023-04-11T17:12:22.652Z,3.42
2023-04-11T17:14:55.451Z,2.55
2023-04-11T17:17:27.285Z,3.33
2023-04-11T17:19:59.406Z,3.27
2023-04-11T17:22:30.060Z,3.20
2023-04-11T17:25:00.637Z,4.10
2023-04-11T17:27:34.807Z,2.07
2023-04-11T17:30:08.244Z,2.30
2023-04-11T17:32:42.817Z,5.08
2023-04-11T17:35:13.553Z,2.40
2023-04-11T17:37:44.320Z,2.30
2023-04-11T17:40:16.881Z,2.42
2023-04-11T17:42:50.018Z,3.07
2023-04-11T17:45:21.660Z,3.55
2023-04-11T17:47:55.542Z,3.17
2023-04-11T17:50:27.798Z,2.40
2023-04-11T17:52:58.712Z,4.35
2023-04-11T17:55:29.931Z,2.37
2023-04-11T17:58:00.909Z,3.42
2023-04-11T18:00:35.093Z,3.37
2023-04-11T18:03:06.180Z,3.20
2023-04-11T18:05:38.717Z,3.90
2023-04-11T18:08:09.524Z,3.58
2023-04-11T18:10:40.289Z,3.20
2023-04-11T18:13:13.275Z,2.22
2023-04-11T18:15:44.252Z,2.43
2023-04-11T18:18:14.826Z,3.25
2023-04-11T18:20:46.064Z,3.70
2023-04-11T18:23:16.667Z,2.47
2023-04-11T18:25:48.965Z,3.20
2023-04-11T18:28:19.740Z,3.63
2023-04-11T18:30:51.621Z,4.35
2023-04-11T18:33:22.746Z,2.65
2023-04-11T18:35:54.819Z,2.53
2023-04-11T18:38:27.496Z,3.23
2023-04-11T18:41:01.568Z,4.13
2023-04-11T18:43:32.411Z,4.03
2023-04-11T18:46:04.719Z,3.20
2023-04-11T18:48:38.317Z,3.65
2023-04-11T18:51:09.410Z,6.07
2023-04-11T18:53:42.626Z,4.50
2023-04-11T18:56:13.448Z,8.70
2023-04-11T18:58:46.599Z,3.90
2023-04-11T19:01:17.816Z,5.80
2023-04-11T19:03:50.466Z,5.40
2023-04-11T19:06:22.063Z,4.73
2023-04-11T19:08:55.499Z,4.33
2023-04-11T19:11:27.658Z,3.50
2023-04-11T19:14:01.369Z,3.93
2023-04-11T19:16:41.777Z,6.07
2023-04-11T19:19:13.683Z,4.03
2023-04-11T19:21:49.703Z,5.87
2023-04-11T19:24:23.285Z,5.90
2023-04-11T19:26:53.821Z,5.20
2023-04-11T19:29:24.954Z,3.37
2023-04-11T19:31:55.703Z,3.70
2023-04-11T19:34:26.916Z,3.80
2023-04-11T19:36:58.320Z,3.73
2023-04-11T19:39:31.821Z,3.90
2023-04-11T19:42:07.863Z,5.77
2023-04-11T19:44:40.032Z,6.87
2023-04-11T19:47:12.333Z,4.33
2023-04-11T19:49:44.972Z,4.73
2023-04-11T19:52:21.398Z,5.15
2023-04-11T19:54:52.440Z,4.03
2023-04-11T19:57:27.453Z,4.17
2023-04-11T20:00:00.287Z,3.77
2023-04-11T20:02:31.141Z,4.55
2023-04-11T20:05:05.637Z,5.87
2023-04-11T20:07:41.564Z,3.47
2023-04-11T20:10:12.608Z,5.03
2023-04-11T20:12:45.532Z,6.10
2023-04-11T20:15:17.512Z,6.83
2023-04-11T20:17:48.423Z,6.23
2023-04-11T20:20:23.614Z,7.20
2023-04-11T20:22:57.140Z,7.80
2023-04-11T20:25:30.798Z,7.63
2023-04-11T20:28:03.107Z,9.27
2023-04-11T20:30:33.949Z,4.67
2023-04-11T20:33:05.798Z,3.77
2023-04-11T20:35:36.950Z,2.92
2023-04-11T20:38:07.985Z,3.03
2023-04-11T20:40:40.622Z,2.83
2023-04-11T20:43:13.548Z,4.77
2023-04-11T20:45:45.994Z,6.40
2023-04-11T20:48:16.503Z,4.00
2023-04-11T20:50:47.387Z,4.30
2023-04-11T20:53:19.373Z,4.33
2023-04-11T20:55:53.959Z,4.37
2023-04-11T20:58:27.494Z,5.70
2023-04-11T21:00:59.347Z,3.63
2023-04-11T21:03:31.386Z,3.87
2023-04-11T21:06:04.582Z,5.17
2023-04-11T21:08:40.455Z,3.63
2023-04-11T21:11:13.964Z,4.37
2023-04-11T21:13:44.549Z,6.17
2023-04-11T21:16:15.542Z,4.77
2023-04-11T21:18:50.185Z,6.27
2023-04-11T21:21:22.431Z,4.40
2023-04-11T21:23:55.791Z,4.70
2023-04-11T21:26:27.235Z,4.93
2023-04-11T21:28:58.337Z,4.80
2023-04-11T21:31:30.921Z,3.20
2023-04-11T21:34:03.373Z,3.93
2023-04-11T21:36:35.276Z,3.73
2023-04-11T21:39:10.030Z,4.33
2023-04-11T21:41:40.685Z,3.33
2023-04-11T21:44:11.517Z,4.97
2023-04-11T21:46:44.027Z,5.00
2023-04-11T21:49:14.603Z,3.10
2023-04-11T21:51:45.536Z,4.07
2023-04-11T21:54:17.964Z,4.23
2023-04-11T21:56:48.667Z,2.67
2023-04-11T21:59:22.454Z,3.97
2023-04-11T22:01:54.299Z,4.37
2023-04-11T22:04:25.259Z,4.03
2023-04-11T22:07:02.326Z,4.43
2023-04-11T22:09:39.283Z,4.57
2023-04-11T22:12:13.157Z,3.53
2023-04-11T22:14:45.534Z,5.00
2023-04-11T22:17:16.466Z,4.03
2023-04-11T22:19:52.869Z,3.97
2023-04-11T22:22:23.448Z,3.67
2023-04-11T22:24:54.444Z,3.63
2023-04-11T22:27:27.210Z,3.02
2023-04-11T22:30:01.000Z,4.57
2023-04-11T22:32:31.726Z,4.07
2023-04-11T22:35:04.458Z,3.60
2023-04-11T22:37:34.920Z,3.53
2023-04-11T22:40:06.278Z,3.50
2023-04-11T22:42:36.790Z,7.05
2023-04-11T22:45:08.246Z,5.20
2023-04-11T22:47:40.384Z,3.50
2023-04-11T22:50:11.563Z,3.30
2023-04-11T22:52:42.623Z,4.70
2023-04-11T22:55:15.316Z,4.70
2023-04-11T22:57:46.148Z,4.53
2023-04-11T23:00:19.127Z,3.50
2023-04-11T23:02:51.354Z,5.43
2023-04-11T23:05:24.071Z,4.97
2023-04-11T23:07:54.535Z,3.57
2023-04-11T23:10:26.563Z,3.80
2023-04-11T23:12:57.279Z,4.83
2023-04-11T23:15:32.110Z,3.43
2023-04-11T23:18:04.793Z,6.70
2023-04-11T23:20:38.321Z,4.33
2023-04-11T23:23:09.137Z,4.00
2023-04-11T23:25:42.028Z,4.73
2023-04-11T23:28:12.629Z,3.67
2023-04-11T23:30:44.722Z,6.30
2023-04-11T23:33:18.297Z,4.40
2023-04-11T23:35:49.359Z,5.63
2023-04-11T23:38:19.970Z,6.20
2023-04-11T23:40:53.610Z,6.60
2023-04-11T23:43:25.232Z,4.83
2023-04-11T23:45:56.688Z,4.63
2023-04-11T23:48:27.290Z,4.77
2023-04-11T23:50:58.317Z,4.37
2023-04-11T23:53:29.033Z,4.57
2023-04-11T23:55:59.646Z,6.33
2023-04-11T23:58:31.246Z,5.37
